Latest Weather Observations for Scotts Peak

IDT60801

Issued at 9:35 am EDT Thursday 27 November 2014 (issued every 30 minutes, with the page automatically refreshed every 10 minutes)

About weather observations | Map of weather stations | Latest weather observations for TAS | Other Formats
Station Details ID: 097083 Name: SCOTTS PEAK DAM Lat: -43.04 Lon: 146.27 Height: 408.0 m
Data from the previous 72 hours. | See also: Recent months at Scotts Peak
Date/Time
EDT
Temp
°C
App
Temp
°C
Dew
Point
Rel
Hum
%
Delta-T
°C
Wind Press
QNH
hPa
Press
MSL
hPa
Rain
since 9 am
mm
Dir
 
Spd
km/h
Gust
km/h
Spd
kts
Gust
kts
27/09:30am 9.3 6.2 7.3 87 1.0 NW 13 20 7 11 - - 0.0
27/09:00am 6.9 2.2 5.1 88 0.8 W 19 26 10 14 - - 7.2
27/08:30am 6.8 2.4 5.0 88 0.8 W 17 26 9 14 - - 7.2
27/08:00am 7.0 0.7 3.6 79 1.5 WNW 26 32 14 17 - - 7.0
27/07:30am 7.3 2.1 3.5 77 1.7 NW 20 28 11 15 - - 7.0
27/07:00am 6.8 1.3 3.9 82 1.3 WNW 22 28 12 15 - - 7.0
27/06:30am 6.6 1.9 3.4 80 1.4 WNW 17 24 9 13 - - 7.0
27/06:00am 6.6 1.3 2.9 77 1.6 WNW 20 26 11 14 - - 7.0
27/05:30am 6.5 1.4 3.1 79 1.5 WNW 19 26 10 14 - - 7.0
27/05:00am 6.8 2.8 3.1 77 1.6 W 13 20 7 11 - - 7.0
27/04:30am 6.7 1.8 4.0 83 1.2 WNW 19 26 10 14 - - 7.0
27/04:00am 6.7 1.6 4.0 83 1.2 WNW 20 24 11 13 - - 7.0
27/03:30am 6.5 1.9 3.5 81 1.3 WNW 17 28 9 15 - - 7.0
27/03:00am 6.5 1.9 3.8 83 1.2 WNW 17 28 9 15 - - 7.0
27/02:30am 6.4 1.8 3.9 84 1.1 NW 17 28 9 15 - - 7.0
27/02:00am 6.5 2.7 4.0 84 1.1 W 13 26 7 14 - - 7.0
27/01:30am 6.6 2.7 3.2 79 1.5 WSW 13 20 7 11 - - 7.0
27/01:00am 6.5 0.9 3.3 80 1.4 W 22 35 12 19 - - 7.0
27/12:32am 6.6 -0.5 3.8 82 1.2 W 30 48 16 26 - - 7.0
27/12:30am 6.7 0.0 3.9 82 1.2 WSW 28 33 15 18 - - 7.0
27/12:00am 6.9 1.8 3.3 78 1.6 W 19 28 10 15 - - 7.0
 
Date/Time
EDT
Temp
°C
App
Temp
°C
Dew
Point
Rel
Hum
%
Delta-T
°C
Wind Press
QNH
hPa
Press
MSL
hPa
Rain
since 9 am
mm
Dir
 
Spd
km/h
Gust
km/h
Spd
kts
Gust
kts
26/11:30pm 6.9 1.0 3.7 80 1.4 W 24 37 13 20 - - 7.0
26/11:00pm 7.0 1.1 4.0 81 1.3 W 24 32 13 17 - - 7.0
26/10:30pm 6.8 2.1 5.0 88 0.8 W 19 30 10 16 - - 7.0
26/10:00pm 7.1 2.3 4.6 84 1.1 W 19 37 10 20 - - 7.0
26/09:30pm 7.1 2.3 4.6 84 1.1 W 19 28 10 15 - - 7.0
26/09:00pm 6.9 0.4 4.7 86 1.0 W 28 43 15 23 - - 7.0
26/08:30pm 7.5 1.2 3.7 77 1.7 W 26 37 14 20 - - 7.0
26/08:00pm 7.4 1.9 4.2 80 1.4 W 22 28 12 15 - - 7.0
26/07:30pm 7.8 1.5 3.8 76 1.8 W 26 41 14 22 - - 7.0
26/07:00pm 7.8 2.0 4.4 79 1.5 W 24 32 13 17 - - 7.0
26/06:30pm 7.7 0.9 5.2 84 1.1 W 30 46 16 25 - - 7.0
26/06:26pm 7.6 0.8 5.2 85 1.1 W 30 46 16 25 - - 7.0
26/06:00pm 7.6 2.9 5.9 89 0.8 W 20 28 11 15 - - 7.0
26/05:40pm 7.9 1.5 5.4 84 1.1 WSW 28 46 15 25 - - 6.8
26/05:30pm 8.8 3.0 4.4 74 2.0 W 24 39 13 21 - - 6.8
26/05:00pm 8.2 2.7 5.8 85 1.1 WSW 24 39 13 21 - - 6.8
26/04:30pm 9.0 3.6 6.3 83 1.3 W 24 37 13 20 - - 6.8
26/04:00pm 9.2 3.4 6.1 81 1.5 W 26 37 14 20 - - 6.8
26/03:30pm 8.6 1.5 6.6 87 0.9 W 33 46 18 25 - - 6.8
26/03:00pm 9.5 3.3 7.8 89 0.8 W 30 43 16 23 - - 6.8
26/02:41pm 9.0 2.7 7.3 89 0.8 W 30 48 16 26 - - 6.4
26/02:30pm 9.8 3.1 8.2 90 0.8 W 33 46 18 25 - - 6.4
26/02:10pm 8.6 1.7 6.4 86 1.0 W 32 50 17 27 - - 6.2
26/02:00pm 10.1 3.3 7.7 85 1.2 W 33 50 18 27 - - 6.0
26/01:58pm 9.6 2.6 6.7 82 1.4 W 33 50 18 27 - - 6.0
26/01:30pm 8.3 3.1 7.2 93 0.5 WNW 24 30 13 16 - - 6.0
26/01:14pm 8.2 2.0 6.2 87 0.9 W 28 52 15 28 - - 5.0
26/01:00pm 8.0 1.8 6.3 89 0.8 W 28 33 15 18 - - 5.0
26/12:40pm 9.1 1.8 7.1 87 1.0 W 35 54 19 29 - - 4.6
26/12:37pm 9.0 1.0 7.6 91 0.7 WNW 39 44 21 24 - - 4.6
26/12:30pm 8.7 2.0 7.5 92 0.6 W 32 46 17 25 - - 4.6
26/12:02pm 9.3 3.2 6.4 82 1.4 W 28 48 15 26 - - 4.4
26/12:00pm 9.1 2.5 6.2 82 1.4 W 30 46 16 25 - - 4.4
26/11:30am 7.3 -0.2 6.4 94 0.4 W 35 54 19 29 - - 4.0
26/11:02am 8.5 0.9 5.8 83 1.3 W 35 54 19 29 - - 1.8
26/11:00am 8.8 0.8 5.5 80 1.5 W 37 54 20 29 - - 1.8
26/10:30am 8.1 -0.7 5.7 85 1.1 W 41 61 22 33 - - 1.8
26/10:06am 8.0 0.5 6.1 88 0.9 W 35 54 19 29 - - 1.8
26/10:00am 7.7 0.6 6.5 92 0.6 W 33 44 18 24 - - 1.8
26/09:30am 8.0 1.1 7.1 94 0.4 WNW 33 52 18 28 - - 0.6
26/09:29am 7.6 0.6 6.7 94 0.4 WNW 33 52 18 28 - - 0.6
26/09:00am 7.8 -0.6 5.4 85 1.1 WNW 39 48 21 26 - - 10.2
26/08:30am 7.1 -0.5 5.6 90 0.7 WNW 35 54 19 29 - - 10.2
26/08:29am 7.0 -0.7 5.5 90 0.7 WNW 35 54 19 29 - - 10.2
26/08:00am 6.9 -1.7 4.9 87 0.9 WNW 39 50 21 27 - - 9.8
26/07:30am 6.9 -2.1 4.4 84 1.1 WNW 41 59 22 32 - - 9.8
26/07:29am 6.9 -2.2 4.0 82 1.3 WNW 41 59 22 32 - - 9.8
26/07:00am 6.2 -3.4 4.2 87 0.9 WNW 44 57 24 31 - - 9.8
26/06:30am 6.2 -3.2 4.2 87 0.9 W 43 54 23 29 - - 9.8
26/06:01am 5.9 -1.3 5.0 94 0.4 W 32 50 17 27 - - 9.8
26/06:00am 5.9 -1.3 5.0 94 0.4 WNW 32 39 17 21 - - 9.6
26/05:30am 5.7 -1.6 4.5 92 0.5 WNW 32 41 17 22 - - 9.4
26/05:00am 6.6 -1.1 3.4 80 1.4 W 33 48 18 26 - - 9.0
26/04:40am 6.5 -1.1 3.8 83 1.2 W 33 52 18 28 - - 9.0
26/04:30am 6.5 -1.5 4.0 84 1.1 W 35 44 19 24 - - 9.0
26/04:00am 6.6 -2.4 4.3 85 1.0 W 41 63 22 34 - - 8.8
26/03:31am 6.9 -2.4 5.8 93 0.5 W 44 63 24 34 - - 8.8
26/03:30am 6.9 -2.8 5.8 93 0.5 W 46 63 25 34 - - 8.8
26/03:21am 6.9 -1.8 6.0 94 0.4 W 41 63 22 34 - - 8.8
26/03:00am 7.3 -1.3 6.4 94 0.4 W 41 56 22 30 - - 8.6
26/02:30am 7.5 -2.0 6.6 94 0.4 W 46 65 25 35 - - 8.4
26/02:05am 7.7 -2.5 6.8 94 0.4 W 50 72 27 39 - - 8.2
26/02:00am 7.8 -1.2 7.1 95 0.3 W 44 59 24 32 - - 8.2
26/01:30am 8.2 -1.2 7.3 94 0.4 W 46 63 25 34 - - 7.8
26/01:00am 8.6 -3.0 8.2 97 0.2 WNW 59 80 32 43 - - 6.6
26/12:33am 8.5 -3.5 8.2 98 0.1 NW 61 80 33 43 - - 6.2
26/12:30am 8.5 -3.9 8.2 98 0.1 NW 63 76 34 41 - - 6.0
26/12:00am 8.3 -3.7 8.0 98 0.1 NW 61 82 33 44 - - 5.8
 
Date/Time
EDT
Temp
°C
App
Temp
°C
Dew
Point
Rel
Hum
%
Delta-T
°C
Wind Press
QNH
hPa
Press
MSL
hPa
Rain
since 9 am
mm
Dir
 
Spd
km/h
Gust
km/h
Spd
kts
Gust
kts
25/11:31pm 8.1 -5.1 7.8 98 0.1 NW 67 85 36 46 - - 5.4
25/11:30pm 8.1 -5.1 7.8 98 0.1 NW 67 82 36 44 - - 5.4
25/11:00pm 8.0 -4.1 7.6 97 0.2 NW 61 85 33 46 - - 5.2
25/10:30pm 7.8 -3.7 7.2 96 0.3 NW 57 80 31 43 - - 5.2
25/10:07pm 7.5 -2.7 7.1 97 0.2 NW 50 78 27 42 - - 5.0
25/10:00pm 7.6 -2.5 7.2 97 0.2 NW 50 61 27 33 - - 5.0
25/09:30pm 7.4 -2.8 6.8 96 0.3 NW 50 65 27 35 - - 4.8
25/09:06pm 7.4 -0.7 6.8 96 0.3 NW 39 57 21 31 - - 4.6
25/09:00pm 7.4 -1.5 6.8 96 0.3 NW 43 59 23 32 - - 4.6
25/08:49pm 7.4 0.4 6.7 95 0.3 NW 33 54 18 29 - - 4.6
25/08:30pm 7.4 0.3 6.5 94 0.4 NW 33 44 18 24 - - 4.6
25/08:01pm 7.3 0.7 5.9 91 0.6 NNW 30 48 16 26 - - 4.4
25/08:00pm 7.3 0.7 5.9 91 0.6 NW 30 39 16 21 - - 4.4
25/07:30pm 7.3 -1.1 5.4 88 0.9 NW 39 63 21 34 - - 4.4
25/07:19pm 7.3 -0.8 5.4 88 0.9 NW 37 56 20 30 - - 4.4
25/07:00pm 7.3 -0.7 5.8 90 0.7 NW 37 50 20 27 - - 4.4
25/06:50pm 7.6 -0.2 5.1 84 1.1 WNW 35 54 19 29 - - 4.4
25/06:30pm 8.0 -0.6 4.4 78 1.6 WNW 39 52 21 28 - - 4.4
25/06:00pm 8.0 -2.3 4.8 80 1.4 WNW 48 65 26 35 - - 4.4
25/05:42pm 8.0 -1.3 4.9 81 1.4 WNW 43 61 23 33 - - 4.4
25/05:30pm 7.5 -1.0 5.3 86 1.0 WNW 39 52 21 28 - - 4.4
25/05:00pm 7.0 -4.3 5.5 90 0.7 WNW 54 67 29 36 - - 4.4
25/04:30pm 8.3 -3.2 4.5 77 1.7 WNW 54 72 29 39 - - 4.2
25/04:02pm 7.9 -1.9 5.2 83 1.2 WNW 46 65 25 35 - - 4.2
25/04:00pm 7.8 -1.6 5.4 85 1.1 WNW 44 57 24 31 - - 4.2
25/03:30pm 7.3 -2.8 5.6 89 0.8 WNW 48 61 26 33 - - 4.2
25/03:11pm 7.7 -1.4 6.6 93 0.5 WNW 44 67 24 36 - - 4.0
25/03:00pm 7.9 -2.0 6.8 93 0.5 WNW 48 57 26 31 - - 3.8
25/02:30pm 7.9 -3.2 6.2 89 0.8 WNW 54 72 29 39 - - 3.6
25/02:29pm 8.0 -3.1 6.5 90 0.7 WNW 54 72 29 39 - - 3.6
25/02:00pm 8.2 -2.0 7.1 93 0.5 WNW 50 65 27 35 - - 3.0
25/01:35pm 9.4 -1.7 7.8 90 0.8 WNW 56 74 30 40 - - 2.8
25/01:30pm 9.1 -2.3 7.5 90 0.8 WNW 57 72 31 39 - - 2.8
25/01:09pm 8.7 -1.2 6.8 88 0.9 WNW 48 69 26 37 - - 2.6
25/01:00pm 9.9 -0.3 7.0 82 1.4 WNW 50 63 27 34 - - 2.6
25/12:30pm 9.0 -0.8 7.0 87 1.0 WNW 48 67 26 36 - - 2.6
25/12:00pm 9.0 0.0 7.1 88 0.9 WNW 44 59 24 32 - - 2.6
25/11:30am 8.1 0.7 6.6 90 0.7 W 35 48 19 26 - - 2.2
25/11:25am 8.4 0.3 7.2 92 0.6 W 39 57 21 31 - - 2.0
25/11:00am 7.9 -1.1 6.5 91 0.7 W 43 54 23 29 - - 1.8
25/10:30am 7.9 -0.2 7.0 94 0.4 WNW 39 50 21 27 - - 1.2
25/10:04am 7.8 -1.3 6.1 89 0.8 WNW 43 50 23 27 - - 0.4
25/10:00am 8.3 1.8 6.4 88 0.9 W 30 46 16 25 - - 0.0
25/09:55am 8.9 2.6 5.8 81 1.4 W 28 46 15 25 - - 0.0
25/09:51am 9.5 4.3 7.1 85 1.2 W 24 35 13 19 - - 0.0
25/09:38am 8.5 0.4 5.3 80 1.5 WSW 37 67 20 36 - - 0.0
25/09:36am 8.7 0.2 5.1 78 1.6 WSW 39 48 21 26 - - 0.0
25/09:30am 9.8 1.4 5.6 75 2.0 W 39 57 21 31 - - 0.0
25/09:00am 9.1 0.0 5.7 79 1.6 WNW 43 65 23 35 - - 12.8
25/08:52am 8.3 -0.9 5.4 82 1.3 WNW 43 65 23 35 - - 12.8
25/08:30am 7.5 -1.8 5.1 85 1.1 W 43 56 23 30 - - 12.8
25/08:00am 7.9 -1.4 5.0 82 1.3 W 43 59 23 32 - - 12.6
25/07:39am 7.4 -2.1 4.7 83 1.2 W 44 65 24 35 - - 12.6
25/07:30am 7.6 -3.0 4.9 83 1.2 W 50 67 27 36 - - 12.6
25/07:11am 7.1 -3.5 4.9 86 1.0 WNW 50 69 27 37 - - 12.6
25/07:00am 7.2 -3.1 4.7 84 1.1 WNW 48 65 26 35 - - 12.6
25/06:30am 7.0 -2.3 4.8 86 1.0 W 43 57 23 31 - - 12.6
25/06:00am 7.1 -3.5 4.9 86 1.0 W 50 69 27 37 - - 12.4
25/05:33am 7.0 -3.9 5.3 89 0.8 W 52 76 28 41 - - 12.4
25/05:30am 6.8 -3.7 5.4 91 0.6 WNW 50 67 27 36 - - 12.4
25/05:21am 6.7 -5.9 5.7 93 0.5 WNW 61 80 33 43 - - 12.4
25/05:12am 6.9 -6.5 5.4 90 0.7 WNW 65 74 35 40 - - 12.0
25/05:01am 7.0 -2.4 5.3 89 0.8 W 44 63 24 34 - - 12.0
25/05:00am 7.0 -2.8 5.2 88 0.8 W 46 63 25 34 - - 12.0
25/04:38am 7.2 -2.9 5.8 91 0.6 W 48 69 26 37 - - 12.0
25/04:30am 7.2 -2.5 5.8 91 0.6 W 46 61 25 33 - - 11.4
25/04:00am 7.4 -1.6 6.3 93 0.5 W 43 63 23 34 - - 11.2
25/03:30am 7.7 -3.1 6.0 89 0.8 WNW 52 72 28 39 - - 10.2
25/03:03am 8.0 -3.9 5.3 83 1.2 WNW 57 76 31 41 - - 9.8
25/03:00am 8.0 -4.2 5.5 84 1.1 WNW 59 76 32 41 - - 9.8
25/02:54am 8.1 -5.2 5.6 84 1.2 WNW 65 76 35 41 - - 9.8
25/02:39am 7.6 -1.5 5.7 88 0.9 W 43 61 23 33 - - 9.8
25/02:30am 8.2 -1.9 5.5 83 1.2 WNW 48 61 26 33 - - 9.8
25/02:26am 8.1 -2.1 5.4 83 1.2 WNW 48 67 26 36 - - 9.8
25/02:00am 7.8 -3.0 5.8 87 0.9 WNW 52 67 28 36 - - 9.8
25/01:39am 7.9 -2.9 5.9 87 0.9 WNW 52 70 28 38 - - 9.8
25/01:30am 7.9 -3.7 6.0 88 0.9 WNW 56 70 30 38 - - 9.8
25/01:10am 7.5 -2.7 6.9 96 0.3 NW 50 69 27 37 - - 9.8
25/01:00am 7.4 -4.2 6.8 96 0.3 NW 57 70 31 38 - - 9.8
25/12:41am 7.6 -3.0 6.7 94 0.4 NW 52 85 28 46 - - 9.4
25/12:30am 7.5 -2.0 6.6 94 0.4 NW 46 63 25 34 - - 9.4
25/12:00am 8.0 -2.0 6.0 87 0.9 NW 48 67 26 36 - - 9.0
 
Date/Time
EDT
Temp
°C
App
Temp
°C
Dew
Point
Rel
Hum
%
Delta-T
°C
Wind Press
QNH
hPa
Press
MSL
hPa
Rain
since 9 am
mm
Dir
 
Spd
km/h
Gust
km/h
Spd
kts
Gust
kts
24/11:30pm 7.6 -0.4 5.9 89 0.8 NW 37 56 20 30 - - 9.0
24/11:16pm 7.4 0.4 6.0 91 0.6 NW 32 50 17 27 - - 9.0
24/11:00pm 7.2 -1.5 5.8 91 0.6 NW 41 54 22 29 - - 9.0
24/10:31pm 7.5 -0.4 6.0 90 0.7 WNW 37 56 20 30 - - 8.8
24/10:30pm 7.8 -0.1 6.4 91 0.7 WNW 37 48 20 26 - - 8.8
24/10:06pm 7.7 -1.6 6.0 89 0.8 WNW 44 63 24 34 - - 8.8
24/10:00pm 7.9 -2.1 6.0 88 0.9 WNW 48 63 26 34 - - 8.8
24/09:37pm 8.0 -2.4 6.1 88 0.9 WNW 50 69 27 37 - - 8.8
24/09:30pm 8.2 -2.9 6.3 88 0.9 WNW 54 70 29 38 - - 8.8
24/09:05pm 8.0 -1.0 6.5 90 0.7 NW 43 61 23 33 - - 8.6
24/09:00pm 7.8 -0.4 6.7 93 0.5 NW 39 56 21 30 - - 8.6
24/08:48pm 7.7 0.6 6.6 93 0.5 NW 33 52 18 28 - - 8.6
24/08:30pm 7.1 1.2 6.0 93 0.5 NW 26 33 14 18 - - 8.6
24/08:00pm 7.4 0.6 6.7 95 0.3 WNW 32 43 17 23 - - 8.6
24/07:49pm 7.7 -0.4 6.8 94 0.4 NW 39 50 21 27 - - 8.4
24/07:30pm 8.5 4.1 7.6 94 0.4 NW 20 32 11 17 - - 8.2
24/07:00pm 8.4 4.0 7.5 94 0.4 NW 20 30 11 16 - - 8.2
24/06:30pm 8.2 5.6 6.3 88 0.9 WSW 9 13 5 7 - - 8.2
24/06:00pm 7.9 0.8 6.4 90 0.7 WNW 33 46 18 25 - - 8.2
24/05:37pm 8.7 -1.0 6.0 83 1.3 WNW 46 65 25 35 - - 7.8
24/05:30pm 9.5 0.6 7.8 89 0.8 WNW 44 57 24 31 - - 7.8
24/05:03pm 10.1 3.3 9.3 95 0.4 WNW 35 59 19 32 - - 7.8
24/05:00pm 10.5 4.4 9.7 95 0.4 W 32 43 17 23 - - 7.8
24/04:30pm 11.0 5.5 10.7 98 0.2 NNW 30 37 16 20 - - 6.8
24/04:00pm 11.3 5.9 11.0 98 0.2 N 30 37 16 20 - - 6.6
24/03:30pm 11.8 6.0 11.5 98 0.2 NNW 33 43 18 23 - - 6.0
24/03:00pm 12.5 7.1 12.2 98 0.2 N 32 43 17 23 - - 5.6
24/02:37pm 11.6 4.6 11.1 97 0.3 N 39 46 21 25 - - 5.2
24/02:30pm 12.0 8.7 11.5 97 0.3 N 20 26 11 14 - - 4.8
24/02:00pm 11.7 7.9 11.2 97 0.3 NNW 22 33 12 18 - - 3.0
24/01:30pm 11.6 6.2 10.8 95 0.4 NNW 30 35 16 19 - - 2.0
24/01:00pm 11.9 6.5 11.0 94 0.5 NNW 30 39 16 21 - - 1.8
24/12:30pm 12.5 7.8 11.9 96 0.3 N 28 33 15 18 - - 1.8
24/12:00pm 11.8 6.1 11.2 96 0.3 NNW 32 43 17 23 - - 1.8
24/11:30am 11.3 6.1 10.4 94 0.5 NNW 28 33 15 18 - - 1.6
24/11:00am 11.0 4.3 9.6 91 0.7 NNW 35 44 19 24 - - 0.8
24/10:30am 13.0 4.8 8.3 73 2.4 NNW 41 52 22 28 - - 0.0
24/10:00am 14.2 7.3 6.6 60 3.8 N 32 39 17 21 - - 0.0

Other Formats:

Comma delimited format used in spreadsheet applications
http://www.bom.gov.au/fwo/IDT60801/IDT60801.95958.axf

JavaScript Object Notation format (JSON) in row-major order
http://www.bom.gov.au/fwo/IDT60801/IDT60801.95958.json